Terminal Aerodrome Forecast
Issued by NWS Wilmington, OH

Current Version | Previous Version | Graphics & Text | Print | Product List | Glossary On
Versions: 1 2 3 4 5 6 7 8 9 10 11 12 13 14 15 16 17 18 19 20 21 22 23
641
FTUS41 KILN 162330
TAFCVG
TAF
KCVG 162330Z 1700/1806 27006KT P6SM OVC025
     FM170300 27004KT P6SM OVC015
     FM170600 26003KT P6SM SCT015
     FM171200 27006KT P6SM BKN015
     FM171900 27008KT P6SM SCT015 SCT250
     FM180000 24006KT P6SM BKN250=

USA.gov is the U.S. government's official web portal to all federal, state and local government web resources and services.